sensor_id;sensor_type;location;lat;lon;timestamp;P1;durP1;ratioP1;P2;durP2;ratioP2
23573;SDS011;11965;53.640;10.050;2023-04-26T00:01:52;3.52;;;2.53;;
23573;SDS011;11965;53.640;10.050;2023-04-26T00:04:19;4.00;;;2.82;;
23573;SDS011;11965;53.640;10.050;2023-04-26T00:06:46;3.71;;;2.68;;
23573;SDS011;11965;53.640;10.050;2023-04-26T00:09:13;3.68;;;2.66;;
23573;SDS011;11965;53.640;10.050;2023-04-26T00:11:41;3.26;;;2.39;;
23573;SDS011;11965;53.640;10.050;2023-04-26T00:14:08;3.49;;;2.57;;
23573;SDS011;11965;53.640;10.050;2023-04-26T00:16:35;3.56;;;2.65;;
23573;SDS011;11965;53.640;10.050;2023-04-26T00:19:02;2.92;;;2.20;;
23573;SDS011;11965;53.640;10.050;2023-04-26T00:21:29;3.10;;;2.33;;
23573;SDS011;11965;53.640;10.050;2023-04-26T00:23:56;3.36;;;2.51;;
23573;SDS011;11965;53.640;10.050;2023-04-26T00:26:23;3.74;;;2.79;;
23573;SDS011;11965;53.640;10.050;2023-04-26T00:28:53;3.31;;;2.50;;
23573;SDS011;11965;53.640;10.050;2023-04-26T00:31:20;2.92;;;2.23;;
23573;SDS011;11965;53.640;10.050;2023-04-26T00:33:47;3.18;;;2.38;;
23573;SDS011;11965;53.640;10.050;2023-04-26T00:36:14;2.84;;;2.13;;
23573;SDS011;11965;53.640;10.050;2023-04-26T00:38:43;3.07;;;2.31;;
23573;SDS011;11965;53.640;10.050;2023-04-26T00:41:10;3.00;;;2.25;;
23573;SDS011;11965;53.640;10.050;2023-04-26T00:43:39;3.90;;;2.88;;
23573;SDS011;11965;53.640;10.050;2023-04-26T00:46:08;2.87;;;2.12;;
23573;SDS011;11965;53.640;10.050;2023-04-26T00:48:36;3.23;;;2.38;;
23573;SDS011;11965;53.640;10.050;2023-04-26T00:51:03;3.16;;;2.32;;
23573;SDS011;11965;53.640;10.050;2023-04-26T00:53:31;3.15;;;2.28;;
23573;SDS011;11965;53.640;10.050;2023-04-26T00:55:59;3.22;;;2.36;;
23573;SDS011;11965;53.640;10.050;2023-04-26T00:58:27;2.93;;;2.14;;
23573;SDS011;11965;53.640;10.050;2023-04-26T01:00:55;3.24;;;2.38;;
23573;SDS011;11965;53.640;10.050;2023-04-26T01:03:24;3.17;;;2.34;;
23573;SDS011;11965;53.640;10.050;2023-04-26T01:05:52;3.19;;;2.41;;
23573;SDS011;11965;53.640;10.050;2023-04-26T01:08:19;2.62;;;2.02;;
23573;SDS011;11965;53.640;10.050;2023-04-26T01:10:49;3.37;;;2.55;;
23573;SDS011;11965;53.640;10.050;2023-04-26T01:13:17;3.11;;;2.35;;
23573;SDS011;11965;53.640;10.050;2023-04-26T01:15:46;2.79;;;2.10;;
23573;SDS011;11965;53.640;10.050;2023-04-26T01:18:14;2.77;;;2.06;;
23573;SDS011;11965;53.640;10.050;2023-04-26T01:20:42;3.07;;;2.29;;
23573;SDS011;11965;53.640;10.050;2023-04-26T01:23:12;3.39;;;2.53;;
23573;SDS011;11965;53.640;10.050;2023-04-26T01:25:39;3.36;;;2.59;;
23573;SDS011;11965;53.640;10.050;2023-04-26T01:28:06;3.05;;;2.39;;
23573;SDS011;11965;53.640;10.050;2023-04-26T01:30:34;3.76;;;2.92;;
23573;SDS011;11965;53.640;10.050;2023-04-26T01:33:01;3.19;;;2.52;;
23573;SDS011;11965;53.640;10.050;2023-04-26T01:35:28;2.88;;;2.31;;
23573;SDS011;11965;53.640;10.050;2023-04-26T01:37:55;2.81;;;2.29;;
23573;SDS011;11965;53.640;10.050;2023-04-26T01:40:27;2.93;;;2.39;;
23573;SDS011;11965;53.640;10.050;2023-04-26T01:42:53;3.00;;;2.47;;
23573;SDS011;11965;53.640;10.050;2023-04-26T01:45:21;2.96;;;2.43;;
23573;SDS011;11965;53.640;10.050;2023-04-26T01:48:06;3.00;;;2.51;;
23573;SDS011;11965;53.640;10.050;2023-04-26T01:50:33;3.00;;;2.50;;
23573;SDS011;11965;53.640;10.050;2023-04-26T01:53:00;3.16;;;2.69;;
23573;SDS011;11965;53.640;10.050;2023-04-26T01:55:28;3.21;;;2.74;;
23573;SDS011;11965;53.640;10.050;2023-04-26T01:57:55;3.39;;;2.93;;
23573;SDS011;11965;53.640;10.050;2023-04-26T02:00:22;3.49;;;3.02;;
23573;SDS011;11965;53.640;10.050;2023-04-26T02:02:49;3.28;;;2.89;;
23573;SDS011;11965;53.640;10.050;2023-04-26T02:05:19;3.31;;;2.91;;
23573;SDS011;11965;53.640;10.050;2023-04-26T02:07:46;3.16;;;2.80;;
23573;SDS011;11965;53.640;10.050;2023-04-26T02:10:13;3.47;;;3.11;;
23573;SDS011;11965;53.640;10.050;2023-04-26T02:12:42;3.46;;;3.11;;
23573;SDS011;11965;53.640;10.050;2023-04-26T02:15:09;3.42;;;3.08;;
23573;SDS011;11965;53.640;10.050;2023-04-26T02:17:37;3.27;;;2.96;;
23573;SDS011;11965;53.640;10.050;2023-04-26T02:20:04;3.39;;;3.08;;
23573;SDS011;11965;53.640;10.050;2023-04-26T02:22:34;3.30;;;3.00;;
23573;SDS011;11965;53.640;10.050;2023-04-26T02:25:01;3.01;;;2.73;;
23573;SDS011;11965;53.640;10.050;2023-04-26T02:27:29;3.09;;;2.78;;
23573;SDS011;11965;53.640;10.050;2023-04-26T02:30:03;3.30;;;2.98;;
23573;SDS011;11965;53.640;10.050;2023-04-26T02:32:31;3.10;;;2.80;;
23573;SDS011;11965;53.640;10.050;2023-04-26T02:34:58;3.27;;;2.93;;
23573;SDS011;11965;53.640;10.050;2023-04-26T02:37:25;3.72;;;3.28;;
23573;SDS011;11965;53.640;10.050;2023-04-26T02:39:52;3.60;;;3.22;;
23573;SDS011;11965;53.640;10.050;2023-04-26T02:42:21;3.34;;;3.03;;
23573;SDS011;11965;53.640;10.050;2023-04-26T02:44:48;3.60;;;3.39;;
23573;SDS011;11965;53.640;10.050;2023-04-26T02:47:16;3.40;;;3.25;;
23573;SDS011;11965;53.640;10.050;2023-04-26T02:49:44;3.53;;;3.35;;
23573;SDS011;11965;53.640;10.050;2023-04-26T02:52:11;3.44;;;3.23;;
23573;SDS011;11965;53.640;10.050;2023-04-26T02:54:37;3.26;;;3.12;;
23573;SDS011;11965;53.640;10.050;2023-04-26T02:57:04;3.60;;;3.45;;
23573;SDS011;11965;53.640;10.050;2023-04-26T02:59:32;3.40;;;3.22;;
23573;SDS011;11965;53.640;10.050;2023-04-26T03:01:59;3.40;;;3.22;;
23573;SDS011;11965;53.640;10.050;2023-04-26T03:04:28;3.26;;;3.09;;
23573;SDS011;11965;53.640;10.050;2023-04-26T03:07:01;3.09;;;2.90;;
23573;SDS011;11965;53.640;10.050;2023-04-26T03:09:30;3.41;;;3.15;;
23573;SDS011;11965;53.640;10.050;2023-04-26T03:11:59;2.88;;;2.64;;
23573;SDS011;11965;53.640;10.050;2023-04-26T03:14:26;3.30;;;2.99;;
23573;SDS011;11965;53.640;10.050;2023-04-26T03:16:54;3.14;;;2.87;;
23573;SDS011;11965;53.640;10.050;2023-04-26T03:19:21;3.32;;;3.02;;
23573;SDS011;11965;53.640;10.050;2023-04-26T03:21:50;3.23;;;2.97;;
23573;SDS011;11965;53.640;10.050;2023-04-26T03:24:17;3.47;;;3.18;;
23573;SDS011;11965;53.640;10.050;2023-04-26T03:26:44;3.55;;;3.31;;
23573;SDS011;11965;53.640;10.050;2023-04-26T03:29:13;3.32;;;3.12;;
23573;SDS011;11965;53.640;10.050;2023-04-26T03:31:41;3.38;;;3.23;;
23573;SDS011;11965;53.640;10.050;2023-04-26T03:34:09;3.52;;;3.40;;
23573;SDS011;11965;53.640;10.050;2023-04-26T03:36:36;3.83;;;3.72;;
23573;SDS011;11965;53.640;10.050;2023-04-26T03:39:05;3.80;;;3.67;;
23573;SDS011;11965;53.640;10.050;2023-04-26T03:41:33;3.94;;;3.77;;
23573;SDS011;11965;53.640;10.050;2023-04-26T03:44:04;4.00;;;3.88;;
23573;SDS011;11965;53.640;10.050;2023-04-26T03:46:31;4.08;;;3.97;;
23573;SDS011;11965;53.640;10.050;2023-04-26T03:48:58;4.45;;;4.33;;
23573;SDS011;11965;53.640;10.050;2023-04-26T03:51:26;4.17;;;4.07;;
23573;SDS011;11965;53.640;10.050;2023-04-26T03:53:52;4.24;;;4.14;;
23573;SDS011;11965;53.640;10.050;2023-04-26T03:56:21;4.11;;;4.07;;
23573;SDS011;11965;53.640;10.050;2023-04-26T03:58:48;4.12;;;4.05;;
23573;SDS011;11965;53.640;10.050;2023-04-26T04:01:16;4.32;;;4.24;;
23573;SDS011;11965;53.640;10.050;2023-04-26T04:03:44;3.99;;;3.91;;
23573;SDS011;11965;53.640;10.050;2023-04-26T04:06:11;4.05;;;3.95;;
23573;SDS011;11965;53.640;10.050;2023-04-26T04:08:38;4.23;;;4.12;;
23573;SDS011;11965;53.640;10.050;2023-04-26T04:11:05;3.91;;;3.80;;
23573;SDS011;11965;53.640;10.050;2023-04-26T04:13:36;4.14;;;4.01;;
23573;SDS011;11965;53.640;10.050;2023-04-26T04:16:03;4.00;;;3.86;;
23573;SDS011;11965;53.640;10.050;2023-04-26T04:18:31;3.89;;;3.72;;
23573;SDS011;11965;53.640;10.050;2023-04-26T04:20:58;3.81;;;3.65;;
23573;SDS011;11965;53.640;10.050;2023-04-26T04:23:25;3.92;;;3.79;;
23573;SDS011;11965;53.640;10.050;2023-04-26T04:25:52;3.78;;;3.67;;
23573;SDS011;11965;53.640;10.050;2023-04-26T04:28:19;3.62;;;3.53;;
23573;SDS011;11965;53.640;10.050;2023-04-26T04:30:48;3.61;;;3.47;;
23573;SDS011;11965;53.640;10.050;2023-04-26T04:33:16;3.81;;;3.63;;
23573;SDS011;11965;53.640;10.050;2023-04-26T04:35:43;3.37;;;3.22;;
23573;SDS011;11965;53.640;10.050;2023-04-26T04:38:11;3.70;;;3.58;;
23573;SDS011;11965;53.640;10.050;2023-04-26T04:40:38;3.70;;;3.59;;
23573;SDS011;11965;53.640;10.050;2023-04-26T04:43:06;3.34;;;3.22;;
23573;SDS011;11965;53.640;10.050;2023-04-26T04:45:33;3.61;;;3.50;;
23573;SDS011;11965;53.640;10.050;2023-04-26T04:48:02;3.62;;;3.50;;
23573;SDS011;11965;53.640;10.050;2023-04-26T04:50:30;3.54;;;3.43;;
23573;SDS011;11965;53.640;10.050;2023-04-26T04:52:57;3.20;;;3.12;;
23573;SDS011;11965;53.640;10.050;2023-04-26T04:55:24;3.40;;;3.39;;
23573;SDS011;11965;53.640;10.050;2023-04-26T04:57:52;3.64;;;3.60;;
23573;SDS011;11965;53.640;10.050;2023-04-26T05:00:19;3.70;;;3.68;;
23573;SDS011;11965;53.640;10.050;2023-04-26T05:02:52;3.54;;;3.50;;
23573;SDS011;11965;53.640;10.050;2023-04-26T05:05:20;3.95;;;3.86;;
23573;SDS011;11965;53.640;10.050;2023-04-26T05:07:47;3.90;;;3.82;;
23573;SDS011;11965;53.640;10.050;2023-04-26T05:10:15;3.97;;;3.90;;
23573;SDS011;11965;53.640;10.050;2023-04-26T05:12:44;4.13;;;4.03;;
23573;SDS011;11965;53.640;10.050;2023-04-26T05:15:12;4.21;;;4.07;;
23573;SDS011;11965;53.640;10.050;2023-04-26T05:17:40;4.32;;;4.22;;
23573;SDS011;11965;53.640;10.050;2023-04-26T05:20:14;4.34;;;4.28;;
23573;SDS011;11965;53.640;10.050;2023-04-26T05:22:42;3.89;;;3.89;;
23573;SDS011;11965;53.640;10.050;2023-04-26T05:25:10;4.33;;;4.30;;
23573;SDS011;11965;53.640;10.050;2023-04-26T05:27:38;4.46;;;4.43;;
23573;SDS011;11965;53.640;10.050;2023-04-26T05:30:31;4.33;;;4.29;;
23573;SDS011;11965;53.640;10.050;2023-04-26T05:33:17;4.43;;;4.40;;
23573;SDS011;11965;53.640;10.050;2023-04-26T05:36:03;4.75;;;4.68;;
23573;SDS011;11965;53.640;10.050;2023-04-26T05:41:01;4.59;;;4.54;;
23573;SDS011;11965;53.640;10.050;2023-04-26T05:43:28;4.85;;;4.80;;
23573;SDS011;11965;53.640;10.050;2023-04-26T05:45:55;4.50;;;4.45;;
23573;SDS011;11965;53.640;10.050;2023-04-26T05:48:24;4.63;;;4.60;;
23573;SDS011;11965;53.640;10.050;2023-04-26T05:50:53;4.69;;;4.68;;
23573;SDS011;11965;53.640;10.050;2023-04-26T05:53:21;4.71;;;4.70;;
23573;SDS011;11965;53.640;10.050;2023-04-26T05:55:49;4.94;;;4.88;;
23573;SDS011;11965;53.640;10.050;2023-04-26T05:58:16;4.79;;;4.75;;
23573;SDS011;11965;53.640;10.050;2023-04-26T06:00:46;4.77;;;4.76;;
23573;SDS011;11965;53.640;10.050;2023-04-26T06:03:13;4.60;;;4.60;;
23573;SDS011;11965;53.640;10.050;2023-04-26T06:05:41;5.01;;;5.01;;
23573;SDS011;11965;53.640;10.050;2023-04-26T06:08:08;4.99;;;4.95;;
23573;SDS011;11965;53.640;10.050;2023-04-26T06:10:35;4.96;;;4.90;;
23573;SDS011;11965;53.640;10.050;2023-04-26T06:13:04;4.87;;;4.86;;
23573;SDS011;11965;53.640;10.050;2023-04-26T06:15:34;4.79;;;4.79;;
23573;SDS011;11965;53.640;10.050;2023-04-26T06:18:01;4.77;;;4.77;;
23573;SDS011;11965;53.640;10.050;2023-04-26T06:20:30;5.08;;;5.08;;
23573;SDS011;11965;53.640;10.050;2023-04-26T06:22:57;4.94;;;4.92;;
23573;SDS011;11965;53.640;10.050;2023-04-26T06:25:24;4.72;;;4.72;;
23573;SDS011;11965;53.640;10.050;2023-04-26T06:27:51;5.18;;;5.18;;
23573;SDS011;11965;53.640;10.050;2023-04-26T06:30:19;5.33;;;5.27;;
23573;SDS011;11965;53.640;10.050;2023-04-26T06:32:50;5.37;;;5.34;;
23573;SDS011;11965;53.640;10.050;2023-04-26T06:35:17;5.23;;;5.21;;
23573;SDS011;11965;53.640;10.050;2023-04-26T06:37:47;5.60;;;5.56;;
23573;SDS011;11965;53.640;10.050;2023-04-26T06:40:14;5.11;;;5.08;;
23573;SDS011;11965;53.640;10.050;2023-04-26T06:42:42;5.01;;;5.01;;
23573;SDS011;11965;53.640;10.050;2023-04-26T06:45:15;5.43;;;5.42;;
23573;SDS011;11965;53.640;10.050;2023-04-26T06:47:45;5.22;;;5.21;;
23573;SDS011;11965;53.640;10.050;2023-04-26T06:50:23;5.58;;;5.50;;
23573;SDS011;11965;53.640;10.050;2023-04-26T06:52:52;5.43;;;5.37;;
23573;SDS011;11965;53.640;10.050;2023-04-26T06:55:19;5.75;;;5.72;;
23573;SDS011;11965;53.640;10.050;2023-04-26T06:57:46;4.64;;;4.64;;
23573;SDS011;11965;53.640;10.050;2023-04-26T07:00:13;5.33;;;5.31;;
23573;SDS011;11965;53.640;10.050;2023-04-26T07:02:42;5.24;;;5.18;;
23573;SDS011;11965;53.640;10.050;2023-04-26T07:05:10;5.46;;;5.36;;
23573;SDS011;11965;53.640;10.050;2023-04-26T07:07:37;5.63;;;5.55;;
23573;SDS011;11965;53.640;10.050;2023-04-26T07:10:04;4.98;;;4.89;;
23573;SDS011;11965;53.640;10.050;2023-04-26T07:12:32;5.29;;;5.23;;
23573;SDS011;11965;53.640;10.050;2023-04-26T07:14:59;5.23;;;5.14;;
23573;SDS011;11965;53.640;10.050;2023-04-26T07:17:26;5.16;;;5.08;;
23573;SDS011;11965;53.640;10.050;2023-04-26T07:19:53;4.96;;;4.89;;
23573;SDS011;11965;53.640;10.050;2023-04-26T07:22:21;4.85;;;4.77;;
23573;SDS011;11965;53.640;10.050;2023-04-26T07:24:48;4.99;;;4.99;;
23573;SDS011;11965;53.640;10.050;2023-04-26T07:27:15;5.03;;;4.99;;
23573;SDS011;11965;53.640;10.050;2023-04-26T07:29:42;4.82;;;4.74;;
23573;SDS011;11965;53.640;10.050;2023-04-26T07:32:10;4.74;;;4.65;;
23573;SDS011;11965;53.640;10.050;2023-04-26T07:34:39;4.64;;;4.62;;
23573;SDS011;11965;53.640;10.050;2023-04-26T07:37:06;4.50;;;4.47;;
23573;SDS011;11965;53.640;10.050;2023-04-26T07:39:34;4.75;;;4.70;;
23573;SDS011;11965;53.640;10.050;2023-04-26T07:42:01;4.54;;;4.48;;
23573;SDS011;11965;53.640;10.050;2023-04-26T07:44:28;4.51;;;4.46;;
23573;SDS011;11965;53.640;10.050;2023-04-26T07:46:55;4.65;;;4.63;;
23573;SDS011;11965;53.640;10.050;2023-04-26T07:49:22;4.52;;;4.51;;
23573;SDS011;11965;53.640;10.050;2023-04-26T07:51:49;4.41;;;4.30;;
23573;SDS011;11965;53.640;10.050;2023-04-26T07:54:16;4.18;;;4.07;;
23573;SDS011;11965;53.640;10.050;2023-04-26T07:56:46;4.08;;;4.03;;
23573;SDS011;11965;53.640;10.050;2023-04-26T07:59:13;3.78;;;3.69;;
23573;SDS011;11965;53.640;10.050;2023-04-26T08:01:40;4.28;;;4.14;;
23573;SDS011;11965;53.640;10.050;2023-04-26T08:04:07;3.75;;;3.63;;
23573;SDS011;11965;53.640;10.050;2023-04-26T08:06:34;3.61;;;3.53;;
23573;SDS011;11965;53.640;10.050;2023-04-26T08:09:03;3.32;;;3.27;;
23573;SDS011;11965;53.640;10.050;2023-04-26T08:11:30;3.17;;;3.08;;
23573;SDS011;11965;53.640;10.050;2023-04-26T08:13:58;2.60;;;2.51;;
23573;SDS011;11965;53.640;10.050;2023-04-26T08:16:25;2.45;;;2.40;;
23573;SDS011;11965;53.640;10.050;2023-04-26T08:18:52;2.19;;;2.14;;
23573;SDS011;11965;53.640;10.050;2023-04-26T08:21:20;2.31;;;2.25;;
23573;SDS011;11965;53.640;10.050;2023-04-26T08:23:46;2.50;;;2.43;;
23573;SDS011;11965;53.640;10.050;2023-04-26T08:26:13;2.25;;;2.20;;
23573;SDS011;11965;53.640;10.050;2023-04-26T08:28:40;2.39;;;2.32;;
23573;SDS011;11965;53.640;10.050;2023-04-26T08:31:08;2.62;;;2.52;;
23573;SDS011;11965;53.640;10.050;2023-04-26T08:33:35;2.71;;;2.57;;
23573;SDS011;11965;53.640;10.050;2023-04-26T08:36:02;2.59;;;2.46;;
23573;SDS011;11965;53.640;10.050;2023-04-26T08:38:30;2.16;;;2.07;;
23573;SDS011;11965;53.640;10.050;2023-04-26T08:40:57;2.24;;;2.12;;
23573;SDS011;11965;53.640;10.050;2023-04-26T08:43:26;2.27;;;2.16;;
23573;SDS011;11965;53.640;10.050;2023-04-26T08:45:54;2.52;;;2.40;;
23573;SDS011;11965;53.640;10.050;2023-04-26T08:48:25;2.73;;;2.59;;
23573;SDS011;11965;53.640;10.050;2023-04-26T08:50:59;2.76;;;2.64;;
23573;SDS011;11965;53.640;10.050;2023-04-26T08:53:28;2.78;;;2.66;;
23573;SDS011;11965;53.640;10.050;2023-04-26T08:55:57;3.01;;;2.87;;
23573;SDS011;11965;53.640;10.050;2023-04-26T08:58:26;3.03;;;2.89;;
23573;SDS011;11965;53.640;10.050;2023-04-26T09:00:53;3.40;;;3.27;;
23573;SDS011;11965;53.640;10.050;2023-04-26T09:03:21;3.31;;;3.17;;
23573;SDS011;11965;53.640;10.050;2023-04-26T09:05:51;3.48;;;3.31;;
23573;SDS011;11965;53.640;10.050;2023-04-26T09:08:19;3.19;;;3.05;;
23573;SDS011;11965;53.640;10.050;2023-04-26T09:10:47;2.99;;;2.87;;
23573;SDS011;11965;53.640;10.050;2023-04-26T09:13:14;3.41;;;3.24;;
23573;SDS011;11965;53.640;10.050;2023-04-26T09:15:41;3.16;;;3.02;;
23573;SDS011;11965;53.640;10.050;2023-04-26T09:18:17;2.50;;;2.38;;
23573;SDS011;11965;53.640;10.050;2023-04-26T09:20:45;2.68;;;2.53;;
23573;SDS011;11965;53.640;10.050;2023-04-26T09:23:29;2.74;;;2.57;;
23573;SDS011;11965;53.640;10.050;2023-04-26T09:26:14;2.50;;;2.37;;
23573;SDS011;11965;53.640;10.050;2023-04-26T09:28:42;2.45;;;2.31;;
23573;SDS011;11965;53.640;10.050;2023-04-26T09:31:10;2.80;;;2.62;;
23573;SDS011;11965;53.640;10.050;2023-04-26T09:36:24;2.71;;;2.54;;
23573;SDS011;11965;53.640;10.050;2023-04-26T09:38:51;2.45;;;2.28;;
23573;SDS011;11965;53.640;10.050;2023-04-26T09:41:18;2.49;;;2.36;;
23573;SDS011;11965;53.640;10.050;2023-04-26T09:43:45;2.31;;;2.15;;
23573;SDS011;11965;53.640;10.050;2023-04-26T09:46:20;2.51;;;2.31;;
23573;SDS011;11965;53.640;10.050;2023-04-26T09:48:59;3.03;;;2.73;;
23573;SDS011;11965;53.640;10.050;2023-04-26T09:51:28;2.64;;;2.40;;
23573;SDS011;11965;53.640;10.050;2023-04-26T09:53:56;2.55;;;2.34;;
23573;SDS011;11965;53.640;10.050;2023-04-26T09:56:23;2.63;;;2.44;;
23573;SDS011;11965;53.640;10.050;2023-04-26T09:58:56;2.60;;;2.42;;
23573;SDS011;11965;53.640;10.050;2023-04-26T10:01:25;2.39;;;2.27;;
23573;SDS011;11965;53.640;10.050;2023-04-26T10:03:54;2.70;;;2.56;;
23573;SDS011;11965;53.640;10.050;2023-04-26T10:06:22;2.53;;;2.39;;
23573;SDS011;11965;53.640;10.050;2023-04-26T10:08:51;2.16;;;2.04;;
23573;SDS011;11965;53.640;10.050;2023-04-26T10:11:18;2.39;;;2.27;;
23573;SDS011;11965;53.640;10.050;2023-04-26T10:13:47;2.40;;;2.28;;
23573;SDS011;11965;53.640;10.050;2023-04-26T10:16:16;2.00;;;1.97;;
23573;SDS011;11965;53.640;10.050;2023-04-26T10:18:43;2.27;;;2.23;;
23573;SDS011;11965;53.640;10.050;2023-04-26T10:21:11;2.45;;;2.35;;
23573;SDS011;11965;53.640;10.050;2023-04-26T10:23:44;2.51;;;2.38;;
23573;SDS011;11965;53.640;10.050;2023-04-26T10:29:16;1.92;;;1.85;;
23573;SDS011;11965;53.640;10.050;2023-04-26T10:32:03;2.18;;;2.14;;
23573;SDS011;11965;53.640;10.050;2023-04-26T10:34:32;1.99;;;1.95;;
23573;SDS011;11965;53.640;10.050;2023-04-26T10:37:07;2.22;;;2.11;;
23573;SDS011;11965;53.640;10.050;2023-04-26T10:39:36;2.09;;;2.03;;
23573;SDS011;11965;53.640;10.050;2023-04-26T10:44:57;2.35;;;2.26;;
23573;SDS011;11965;53.640;10.050;2023-04-26T10:47:29;2.15;;;2.05;;
23573;SDS011;11965;53.640;10.050;2023-04-26T10:50:02;2.08;;;2.01;;
23573;SDS011;11965;53.640;10.050;2023-04-26T10:52:31;2.19;;;2.13;;
23573;SDS011;11965;53.640;10.050;2023-04-26T10:54:59;2.94;;;2.85;;
23573;SDS011;11965;53.640;10.050;2023-04-26T10:57:48;10.40;;;10.02;;
23573;SDS011;11965;53.640;10.050;2023-04-26T11:00:26;2.98;;;2.88;;
23573;SDS011;11965;53.640;10.050;2023-04-26T11:02:55;1.68;;;1.64;;
23573;SDS011;11965;53.640;10.050;2023-04-26T11:05:31;1.49;;;1.45;;
23573;SDS011;11965;53.640;10.050;2023-04-26T11:08:06;1.75;;;1.70;;
23573;SDS011;11965;53.640;10.050;2023-04-26T11:10:37;1.71;;;1.67;;
23573;SDS011;11965;53.640;10.050;2023-04-26T11:13:06;1.72;;;1.66;;
23573;SDS011;11965;53.640;10.050;2023-04-26T11:15:33;1.91;;;1.83;;
23573;SDS011;11965;53.640;10.050;2023-04-26T11:18:01;1.94;;;1.86;;
23573;SDS011;11965;53.640;10.050;2023-04-26T11:20:29;2.00;;;1.91;;
23573;SDS011;11965;53.640;10.050;2023-04-26T11:22:57;2.31;;;2.20;;
23573;SDS011;11965;53.640;10.050;2023-04-26T11:25:25;2.36;;;2.24;;
23573;SDS011;11965;53.640;10.050;2023-04-26T11:27:57;2.20;;;2.11;;
23573;SDS011;11965;53.640;10.050;2023-04-26T11:30:28;2.06;;;1.98;;
23573;SDS011;11965;53.640;10.050;2023-04-26T11:32:56;1.77;;;1.70;;
23573;SDS011;11965;53.640;10.050;2023-04-26T11:35:23;2.00;;;1.91;;
23573;SDS011;11965;53.640;10.050;2023-04-26T11:37:51;1.88;;;1.79;;
23573;SDS011;11965;53.640;10.050;2023-04-26T11:40:18;1.84;;;1.75;;
23573;SDS011;11965;53.640;10.050;2023-04-26T11:42:46;1.71;;;1.61;;
23573;SDS011;11965;53.640;10.050;2023-04-26T11:45:16;2.08;;;1.93;;
23573;SDS011;11965;53.640;10.050;2023-04-26T11:47:44;1.93;;;1.78;;
23573;SDS011;11965;53.640;10.050;2023-04-26T11:50:13;2.00;;;1.87;;
23573;SDS011;11965;53.640;10.050;2023-04-26T11:52:41;2.01;;;1.89;;
23573;SDS011;11965;53.640;10.050;2023-04-26T11:55:08;1.60;;;1.57;;
23573;SDS011;11965;53.640;10.050;2023-04-26T11:57:35;1.63;;;1.63;;
23573;SDS011;11965;53.640;10.050;2023-04-26T12:00:06;1.60;;;1.52;;
23573;SDS011;11965;53.640;10.050;2023-04-26T12:02:36;1.74;;;1.64;;
23573;SDS011;11965;53.640;10.050;2023-04-26T12:05:05;2.01;;;1.88;;
23573;SDS011;11965;53.640;10.050;2023-04-26T12:07:34;2.02;;;1.87;;
23573;SDS011;11965;53.640;10.050;2023-04-26T12:10:15;2.02;;;1.84;;
23573;SDS011;11965;53.640;10.050;2023-04-26T12:12:43;2.13;;;1.90;;
23573;SDS011;11965;53.640;10.050;2023-04-26T12:15:10;2.02;;;1.79;;
23573;SDS011;11965;53.640;10.050;2023-04-26T12:17:37;2.00;;;1.78;;
23573;SDS011;11965;53.640;10.050;2023-04-26T12:20:10;2.19;;;1.96;;
23573;SDS011;11965;53.640;10.050;2023-04-26T12:22:37;1.91;;;1.70;;
23573;SDS011;11965;53.640;10.050;2023-04-26T12:25:04;1.95;;;1.73;;
23573;SDS011;11965;53.640;10.050;2023-04-26T12:27:32;2.15;;;1.88;;
23573;SDS011;11965;53.640;10.050;2023-04-26T12:29:59;1.84;;;1.61;;
23573;SDS011;11965;53.640;10.050;2023-04-26T12:32:26;2.04;;;1.79;;
23573;SDS011;11965;53.640;10.050;2023-04-26T12:34:53;1.81;;;1.62;;
23573;SDS011;11965;53.640;10.050;2023-04-26T12:37:22;1.75;;;1.57;;
23573;SDS011;11965;53.640;10.050;2023-04-26T12:39:49;1.62;;;1.47;;
23573;SDS011;11965;53.640;10.050;2023-04-26T12:42:16;1.69;;;1.53;;
23573;SDS011;11965;53.640;10.050;2023-04-26T12:44:43;1.53;;;1.38;;
23573;SDS011;11965;53.640;10.050;2023-04-26T12:47:10;1.83;;;1.65;;
23573;SDS011;11965;53.640;10.050;2023-04-26T12:49:38;1.57;;;1.41;;
23573;SDS011;11965;53.640;10.050;2023-04-26T12:52:04;2.00;;;1.79;;
23573;SDS011;11965;53.640;10.050;2023-04-26T12:54:33;1.60;;;1.44;;
23573;SDS011;11965;53.640;10.050;2023-04-26T12:57:00;1.58;;;1.44;;
23573;SDS011;11965;53.640;10.050;2023-04-26T12:59:30;1.59;;;1.45;;
23573;SDS011;11965;53.640;10.050;2023-04-26T13:01:57;1.81;;;1.63;;
23573;SDS011;11965;53.640;10.050;2023-04-26T13:04:24;1.88;;;1.66;;
23573;SDS011;11965;53.640;10.050;2023-04-26T13:06:51;1.92;;;1.66;;
23573;SDS011;11965;53.640;10.050;2023-04-26T13:09:18;2.13;;;1.84;;
23573;SDS011;11965;53.640;10.050;2023-04-26T13:11:47;1.90;;;1.65;;
23573;SDS011;11965;53.640;10.050;2023-04-26T13:14:18;1.86;;;1.62;;
23573;SDS011;11965;53.640;10.050;2023-04-26T13:16:47;1.93;;;1.68;;
23573;SDS011;11965;53.640;10.050;2023-04-26T13:19:14;2.27;;;1.95;;
23573;SDS011;11965;53.640;10.050;2023-04-26T13:21:41;1.90;;;1.63;;
23573;SDS011;11965;53.640;10.050;2023-04-26T13:24:08;1.90;;;1.63;;
23573;SDS011;11965;53.640;10.050;2023-04-26T13:26:35;1.58;;;1.40;;
23573;SDS011;11965;53.640;10.050;2023-04-26T13:29:03;1.96;;;1.71;;
23573;SDS011;11965;53.640;10.050;2023-04-26T13:31:30;1.84;;;1.57;;
23573;SDS011;11965;53.640;10.050;2023-04-26T13:33:57;1.98;;;1.69;;
23573;SDS011;11965;53.640;10.050;2023-04-26T13:36:24;1.93;;;1.64;;
23573;SDS011;11965;53.640;10.050;2023-04-26T13:38:52;2.19;;;1.89;;
23573;SDS011;11965;53.640;10.050;2023-04-26T13:41:19;2.09;;;1.81;;
23573;SDS011;11965;53.640;10.050;2023-04-26T13:43:46;2.02;;;1.76;;
23573;SDS011;11965;53.640;10.050;2023-04-26T13:46:15;2.03;;;1.77;;
23573;SDS011;11965;53.640;10.050;2023-04-26T13:48:41;1.86;;;1.66;;
23573;SDS011;11965;53.640;10.050;2023-04-26T13:51:08;1.91;;;1.73;;
23573;SDS011;11965;53.640;10.050;2023-04-26T13:53:36;1.83;;;1.67;;
23573;SDS011;11965;53.640;10.050;2023-04-26T13:56:03;1.84;;;1.69;;
23573;SDS011;11965;53.640;10.050;2023-04-26T13:58:30;1.83;;;1.68;;
23573;SDS011;11965;53.640;10.050;2023-04-26T14:00:57;2.07;;;1.90;;
23573;SDS011;11965;53.640;10.050;2023-04-26T14:03:25;2.26;;;2.07;;
23573;SDS011;11965;53.640;10.050;2023-04-26T14:05:52;2.05;;;1.86;;
23573;SDS011;11965;53.640;10.050;2023-04-26T14:08:20;1.79;;;1.62;;
23573;SDS011;11965;53.640;10.050;2023-04-26T14:10:47;1.72;;;1.57;;
23573;SDS011;11965;53.640;10.050;2023-04-26T14:13:14;2.25;;;2.05;;
23573;SDS011;11965;53.640;10.050;2023-04-26T14:15:43;1.90;;;1.73;;
23573;SDS011;11965;53.640;10.050;2023-04-26T14:18:10;2.19;;;2.01;;
23573;SDS011;11965;53.640;10.050;2023-04-26T14:20:39;2.10;;;1.92;;
23573;SDS011;11965;53.640;10.050;2023-04-26T14:23:06;2.27;;;2.03;;
23573;SDS011;11965;53.640;10.050;2023-04-26T14:25:33;2.08;;;1.89;;
23573;SDS011;11965;53.640;10.050;2023-04-26T14:28:00;2.04;;;1.89;;
23573;SDS011;11965;53.640;10.050;2023-04-26T14:30:27;2.31;;;2.14;;
23573;SDS011;11965;53.640;10.050;2023-04-26T14:32:55;2.16;;;1.98;;
23573;SDS011;11965;53.640;10.050;2023-04-26T14:35:22;2.16;;;1.98;;
23573;SDS011;11965;53.640;10.050;2023-04-26T14:37:50;2.03;;;1.87;;
23573;SDS011;11965;53.640;10.050;2023-04-26T14:40:17;2.23;;;2.05;;
23573;SDS011;11965;53.640;10.050;2023-04-26T14:42:44;1.95;;;1.79;;
23573;SDS011;11965;53.640;10.050;2023-04-26T14:45:11;2.37;;;2.21;;
23573;SDS011;11965;53.640;10.050;2023-04-26T14:47:38;2.20;;;2.06;;
23573;SDS011;11965;53.640;10.050;2023-04-26T14:50:06;2.30;;;2.15;;
23573;SDS011;11965;53.640;10.050;2023-04-26T14:52:42;2.31;;;2.18;;